Time,TemperatureF,DewpointF,PressureIn,WindDirection,WindDirectionDegrees,WindSpeedMPH,WindSpeedGustMPH,Humidity,HourlyPrecipIn,Conditions,Clouds,dailyrainin,SoftwareType,DateUTC
2013-02-07 00:02:00,39.0,33.0,30.02,SSE,150,2.0,3.0,79,0.05,,,0.05,,2013-02-07 06:02:00,
2013-02-07 00:11:00,39.0,33.0,30.02,SSE,150,2.0,3.0,79,0.05,,,0.05,,2013-02-07 06:11:00,
2013-02-07 00:22:00,38.0,33.0,30.01,SE,134,2.0,6.0,81,0.08,,,0.08,,2013-02-07 06:22:00,
2013-02-07 00:32:00,38.0,33.0,30.00,ESE,123,5.0,9.0,82,0.08,,,0.08,,2013-02-07 06:32:00,
2013-02-07 00:43:00,38.0,33.0,30.00,ESE,123,5.0,9.0,82,0.08,,,0.08,,2013-02-07 06:43:00,
2013-02-07 00:52:00,38.0,33.0,30.00,SSE,155,2.0,6.0,82,0.07,,,0.08,,2013-02-07 06:52:00,
2013-02-07 01:01:00,38.0,33.0,30.00,East,92,2.0,7.0,81,0.03,,,0.08,,2013-02-07 07:01:00,
2013-02-07 01:11:00,38.0,33.0,30.00,SE,140,1.0,4.0,82,0.00,,,0.08,,2013-02-07 07:11:00,
2013-02-07 01:22:00,38.0,33.0,30.00,SE,140,1.0,4.0,82,0.00,,,0.08,,2013-02-07 07:22:00,
2013-02-07 01:32:00,38.0,33.0,29.99,SSE,156,1.0,5.0,82,0.01,,,0.09,,2013-02-07 07:32:00,
2013-02-07 01:42:00,38.0,33.0,29.99,SSE,156,1.0,5.0,82,0.01,,,0.09,,2013-02-07 07:42:00,
2013-02-07 01:52:00,38.0,33.0,29.98,ENE,57,2.0,11.0,83,0.02,,,0.10,,2013-02-07 07:52:00,
2013-02-07 02:01:00,37.0,32.0,29.98,SSW,212,1.0,8.0,83,0.02,,,0.10,,2013-02-07 08:01:00,
2013-02-07 02:11:00,37.0,32.0,29.98,SSW,212,1.0,8.0,83,0.02,,,0.10,,2013-02-07 08:11:00,
2013-02-07 02:21:00,37.0,33.0,29.98,ESE,115,2.0,8.0,84,0.02,,,0.10,,2013-02-07 08:21:00,
2013-02-07 02:32:00,37.0,33.0,29.98,SSW,194,0.0,4.0,84,0.03,,,0.12,,2013-02-07 08:32:00,
2013-02-07 02:42:00,37.0,33.0,29.98,SSW,194,0.0,4.0,84,0.03,,,0.12,,2013-02-07 08:42:00,
2013-02-07 02:52:00,37.0,33.0,29.98,ESE,117,2.0,6.0,84,0.04,,,0.14,,2013-02-07 08:52:00,
2013-02-07 03:02:00,37.0,33.0,29.97,NNW,339,3.0,7.0,85,0.06,,,0.16,,2013-02-07 09:02:00,
2013-02-07 03:11:00,37.0,33.0,29.97,NNW,339,3.0,7.0,85,0.06,,,0.16,,2013-02-07 09:11:00,
2013-02-07 03:21:00,37.0,33.0,29.97,SE,126,2.0,5.0,85,0.06,,,0.17,,2013-02-07 09:21:00,
2013-02-07 03:31:00,37.0,33.0,29.96,NNW,346,1.0,6.0,85,0.05,,,0.17,,2013-02-07 09:31:00,
2013-02-07 03:41:00,37.0,33.0,29.96,NNW,346,1.0,6.0,85,0.05,,,0.17,,2013-02-07 09:41:00,
2013-02-07 03:52:00,37.0,33.0,29.96,SE,131,2.0,4.0,85,0.04,,,0.18,,2013-02-07 09:52:00,
2013-02-07 04:01:00,37.0,33.0,29.96,SE,126,2.0,5.0,85,0.04,,,0.20,,2013-02-07 10:01:00,
2013-02-07 04:11:00,37.0,33.0,29.96,SE,126,2.0,5.0,85,0.04,,,0.20,,2013-02-07 10:11:00,
2013-02-07 04:22:00,37.0,33.0,29.96,SE,143,2.0,6.0,85,0.06,,,0.23,,2013-02-07 10:22:00,
2013-02-07 04:32:00,37.0,33.0,29.97,WNW,294,3.0,6.0,85,0.08,,,0.25,,2013-02-07 10:32:00,
2013-02-07 04:42:00,37.0,33.0,29.97,WNW,294,3.0,6.0,85,0.08,,,0.25,,2013-02-07 10:42:00,
2013-02-07 04:52:00,37.0,33.0,29.97,SSE,153,0.0,3.0,86,0.08,,,0.26,,2013-02-07 10:52:00,
2013-02-07 05:01:00,37.0,33.0,29.96,SSE,157,1.0,4.0,86,0.08,,,0.28,,2013-02-07 11:01:00,
2013-02-07 05:11:00,37.0,33.0,29.96,SSE,157,1.0,4.0,86,0.08,,,0.28,,2013-02-07 11:11:00,
2013-02-07 05:22:00,37.0,33.0,29.95,SSE,157,1.0,4.0,86,0.07,,,0.30,,2013-02-07 11:22:00,
2013-02-07 05:32:00,37.0,33.0,29.95,SW,231,0.0,4.0,86,0.07,,,0.32,,2013-02-07 11:32:00,
2013-02-07 05:44:00,37.0,33.0,29.95,SW,231,0.0,4.0,86,0.07,,,0.32,,2013-02-07 11:44:00,
2013-02-07 05:52:00,36.0,32.0,29.94,South,180,1.0,5.0,86,0.06,,,0.32,,2013-02-07 11:52:00,
2013-02-07 06:02:00,36.0,32.0,29.94,ESE,107,1.0,5.0,86,0.04,,,0.32,,2013-02-07 12:02:00,
2013-02-07 06:11:00,36.0,32.0,29.94,ESE,107,1.0,5.0,86,0.04,,,0.32,,2013-02-07 12:11:00,
2013-02-07 06:22:00,36.0,33.0,29.94,ESE,117,1.0,5.0,87,0.02,,,0.32,,2013-02-07 12:22:00,
2013-02-07 06:32:00,37.0,34.0,29.94,SE,137,1.0,5.0,87,0.00,,,0.32,,2013-02-07 12:32:00,
2013-02-07 06:42:00,37.0,34.0,29.94,SE,137,1.0,5.0,87,0.00,,,0.32,,2013-02-07 12:42:00,
2013-02-07 06:53:00,37.0,33.0,29.94,SSE,160,1.0,4.0,86,0.00,,,0.32,,2013-02-07 12:53:00,
2013-02-07 07:02:00,36.0,32.0,29.93,SE,146,2.0,4.0,86,0.00,,,0.32,,2013-02-07 13:02:00,
2013-02-07 07:12:00,36.0,32.0,29.93,SE,146,2.0,4.0,86,0.00,,,0.32,,2013-02-07 13:12:00,
2013-02-07 07:22:00,36.0,32.0,29.94,SE,139,1.0,3.0,86,0.01,,,0.33,,2013-02-07 13:22:00,
2013-02-07 07:32:00,36.0,32.0,29.94,SE,136,0.0,4.0,86,0.02,,,0.34,,2013-02-07 13:32:00,
2013-02-07 07:42:00,36.0,32.0,29.94,SE,136,0.0,4.0,86,0.02,,,0.34,,2013-02-07 13:42:00,
2013-02-07 07:52:00,36.0,32.0,29.94,SE,146,1.0,4.0,86,0.02,,,0.34,,2013-02-07 13:52:00,
2013-02-07 08:01:00,36.0,33.0,29.94,SE,144,1.0,4.0,87,0.02,,,0.34,,2013-02-07 14:01:00,
2013-02-07 08:11:00,36.0,33.0,29.94,SE,144,1.0,4.0,87,0.02,,,0.34,,2013-02-07 14:11:00,
2013-02-07 08:21:00,36.0,33.0,29.94,SE,144,1.0,3.0,87,0.02,,,0.35,,2013-02-07 14:21:00,
2013-02-07 08:32:00,36.0,33.0,29.94,SE,144,0.0,3.0,87,0.03,,,0.37,,2013-02-07 14:32:00,
2013-02-07 08:42:00,36.0,33.0,29.94,SE,144,0.0,3.0,87,0.03,,,0.37,,2013-02-07 14:42:00,
2013-02-07 08:52:00,36.0,33.0,29.94,SE,144,0.0,1.0,87,0.04,,,0.38,,2013-02-07 14:52:00,
2013-02-07 09:01:00,36.0,33.0,29.94,SE,144,1.0,3.0,87,0.06,,,0.40,,2013-02-07 15:01:00,
2013-02-07 09:11:00,36.0,33.0,29.94,SE,144,1.0,3.0,87,0.06,,,0.40,,2013-02-07 15:11:00,
2013-02-07 09:22:00,36.0,33.0,29.94,SE,144,1.0,3.0,87,0.07,,,0.42,,2013-02-07 15:22:00,
2013-02-07 09:32:00,36.0,33.0,29.94,SE,144,0.0,4.0,87,0.07,,,0.44,,2013-02-07 15:32:00,
2013-02-07 09:42:00,36.0,33.0,29.94,SE,144,0.0,4.0,87,0.07,,,0.44,,2013-02-07 15:42:00,
2013-02-07 09:52:00,36.0,33.0,29.93,SSW,196,0.0,3.0,87,0.08,,,0.46,,2013-02-07 15:52:00,
2013-02-07 10:01:00,36.0,33.0,29.93,SSW,196,0.0,2.0,87,0.08,,,0.48,,2013-02-07 16:01:00,
2013-02-07 10:11:00,36.0,33.0,29.93,SSW,196,0.0,2.0,87,0.08,,,0.48,,2013-02-07 16:11:00,
2013-02-07 10:21:00,36.0,33.0,29.93,SSW,196,0.0,1.0,87,0.08,,,0.50,,2013-02-07 16:21:00,
2013-02-07 10:32:00,37.0,34.0,29.93,SSW,196,0.0,2.0,88,0.09,,,0.53,,2013-02-07 16:32:00,
2013-02-07 10:41:00,37.0,34.0,29.93,SSW,196,0.0,2.0,88,0.09,,,0.53,,2013-02-07 16:41:00,
2013-02-07 10:52:00,37.0,34.0,29.93,SSW,196,0.0,1.0,88,0.10,,,0.56,,2013-02-07 16:52:00,
2013-02-07 11:01:00,37.0,34.0,29.93,SSW,196,0.0,1.0,88,0.09,,,0.57,,2013-02-07 17:01:00,
2013-02-07 11:11:00,37.0,34.0,29.93,SSW,196,0.0,1.0,88,0.09,,,0.57,,2013-02-07 17:11:00,
2013-02-07 11:21:00,37.0,34.0,29.93,SSW,196,0.0,0.0,88,0.07,,,0.58,,2013-02-07 17:21:00,
2013-02-07 11:31:00,37.0,34.0,29.92,SSW,196,0.0,0.0,88,0.06,,,0.60,,2013-02-07 17:31:00,
2013-02-07 11:43:00,37.0,34.0,29.92,SSW,196,0.0,0.0,88,0.06,,,0.60,,2013-02-07 17:43:00,
2013-02-07 11:52:00,37.0,34.0,29.92,SSW,196,0.0,0.0,88,0.06,,,0.60,,2013-02-07 17:52:00,
2013-02-07 12:01:00,37.0,34.0,29.92,SSW,196,0.0,0.0,88,0.06,,,0.60,,2013-02-07 18:01:00,
2013-02-07 12:11:00,37.0,34.0,29.92,SSW,196,0.0,0.0,88,0.06,,,0.60,,2013-02-07 18:11:00,
2013-02-07 12:23:00,38.0,35.0,29.91,SSW,196,0.0,0.0,88,0.05,,,0.63,,2013-02-07 18:23:00,
2013-02-07 12:32:00,38.0,35.0,29.90,SSW,196,0.0,0.0,88,0.05,,,0.64,,2013-02-07 18:32:00,
2013-02-07 12:42:00,38.0,35.0,29.90,SSW,196,0.0,0.0,88,0.05,,,0.64,,2013-02-07 18:42:00,
2013-02-07 12:52:00,38.0,35.0,29.89,SSW,196,0.0,0.0,88,0.05,,,0.66,,2013-02-07 18:52:00,
2013-02-07 13:01:00,38.0,35.0,29.88,SSW,196,0.0,0.0,88,0.05,,,0.67,,2013-02-07 19:01:00,
2013-02-07 13:11:00,38.0,35.0,29.88,SSW,196,0.0,0.0,88,0.05,,,0.67,,2013-02-07 19:11:00,
2013-02-07 13:22:00,38.0,35.0,29.88,SSW,196,0.0,1.0,88,0.06,,,0.68,,2013-02-07 19:22:00,
2013-02-07 13:32:00,38.0,35.0,29.88,SSW,196,0.0,0.0,88,0.04,,,0.68,,2013-02-07 19:32:00,
2013-02-07 13:41:00,38.0,35.0,29.88,SSW,196,0.0,0.0,88,0.04,,,0.68,,2013-02-07 19:41:00,
2013-02-07 13:52:00,38.0,35.0,29.88,SSW,196,0.0,0.0,88,0.03,,,0.69,,2013-02-07 19:52:00,
2013-02-07 14:01:00,38.0,35.0,29.88,SSW,196,0.0,1.0,88,0.03,,,0.70,,2013-02-07 20:01:00,
2013-02-07 14:11:00,38.0,35.0,29.88,SSW,196,0.0,1.0,88,0.03,,,0.70,,2013-02-07 20:11:00,
2013-02-07 14:22:00,38.0,35.0,29.88,SSW,196,0.0,1.0,88,0.02,,,0.70,,2013-02-07 20:22:00,
2013-02-07 14:31:00,38.0,35.0,29.87,SSW,196,0.0,2.0,88,0.03,,,0.71,,2013-02-07 20:31:00,
2013-02-07 14:42:00,38.0,35.0,29.87,SSW,196,0.0,2.0,88,0.03,,,0.71,,2013-02-07 20:42:00,
2013-02-07 14:52:00,38.0,35.0,29.86,SSW,196,0.0,2.0,88,0.06,,,0.75,,2013-02-07 20:52:00,
2013-02-07 15:02:00,38.0,35.0,29.86,SSW,196,0.0,1.0,88,0.06,,,0.75,,2013-02-07 21:02:00,
2013-02-07 15:11:00,38.0,35.0,29.86,SSW,196,0.0,1.0,88,0.06,,,0.75,,2013-02-07 21:11:00,
2013-02-07 15:21:00,38.0,35.0,29.86,SSW,201,1.0,2.0,88,0.05,,,0.76,,2013-02-07 21:21:00,
2013-02-07 15:31:00,38.0,35.0,29.86,WNW,287,0.0,2.0,88,0.05,,,0.76,,2013-02-07 21:31:00,
2013-02-07 15:42:00,38.0,35.0,29.86,WNW,287,0.0,2.0,88,0.05,,,0.76,,2013-02-07 21:42:00,
2013-02-07 15:52:00,38.0,35.0,29.86,WNW,298,1.0,3.0,88,0.03,,,0.77,,2013-02-07 21:52:00,
2013-02-07 16:02:00,38.0,35.0,29.87,WNW,300,1.0,3.0,88,0.02,,,0.78,,2013-02-07 22:02:00,
2013-02-07 16:11:00,38.0,35.0,29.87,WNW,300,1.0,3.0,88,0.02,,,0.78,,2013-02-07 22:11:00,
2013-02-07 16:21:00,38.0,35.0,29.87,NNW,331,3.0,4.0,88,0.02,,,0.78,,2013-02-07 22:21:00,
2013-02-07 16:32:00,38.0,35.0,29.88,NW,323,4.0,8.0,88,0.02,,,0.78,,2013-02-07 22:32:00,
2013-02-07 16:42:00,38.0,35.0,29.88,NW,323,4.0,8.0,88,0.02,,,0.78,,2013-02-07 22:42:00,
2013-02-07 16:51:00,37.0,34.0,29.88,NNW,336,4.0,8.0,88,0.00,,,0.78,,2013-02-07 22:51:00,
2013-02-07 17:01:00,37.0,34.0,29.88,North,355,2.0,6.0,88,0.01,,,0.79,,2013-02-07 23:01:00,
2013-02-07 17:11:00,37.0,34.0,29.88,North,355,2.0,6.0,88,0.01,,,0.79,,2013-02-07 23:11:00,
2013-02-07 17:21:00,37.0,34.0,29.88,North,5,4.0,8.0,88,0.01,,,0.79,,2013-02-07 23:21:00,
2013-02-07 17:32:00,36.0,33.0,29.89,North,355,3.0,6.0,87,0.01,,,0.79,,2013-02-07 23:32:00,
2013-02-07 17:41:00,36.0,33.0,29.89,North,355,3.0,6.0,87,0.01,,,0.79,,2013-02-07 23:41:00,
2013-02-07 17:52:00,36.0,33.0,29.90,North,360,2.0,4.0,87,0.01,,,0.79,,2013-02-07 23:52:00,
2013-02-07 18:01:00,36.0,33.0,29.91,NNW,347,1.0,4.0,87,0.00,,,0.79,,2013-02-08 00:01:00,
2013-02-07 18:11:00,36.0,33.0,29.91,NNW,347,1.0,4.0,87,0.00,,,0.79,,2013-02-08 00:11:00,
2013-02-07 18:21:00,35.0,32.0,29.91,North,355,3.0,7.0,87,0.00,,,0.79,,2013-02-08 00:21:00,
2013-02-07 18:31:00,35.0,32.0,29.93,NNW,336,3.0,7.0,87,0.01,,,0.80,,2013-02-08 00:31:00,
2013-02-07 18:42:00,35.0,32.0,29.93,NNW,336,3.0,7.0,87,0.01,,,0.80,,2013-02-08 00:42:00,
2013-02-07 18:52:00,35.0,32.0,29.95,WNW,299,4.0,7.0,87,0.01,,,0.80,,2013-02-08 00:52:00,
2013-02-07 19:01:00,35.0,32.0,29.96,NNW,336,4.0,7.0,88,0.01,,,0.80,,2013-02-08 01:01:00,
2013-02-07 19:11:00,35.0,32.0,29.96,NNW,336,4.0,7.0,88,0.01,,,0.80,,2013-02-08 01:11:00,
2013-02-07 19:21:00,35.0,32.0,29.97,NNW,342,4.0,10.0,88,0.01,,,0.80,,2013-02-08 01:21:00,
2013-02-07 19:31:00,35.0,32.0,29.97,NNW,338,4.0,8.0,88,0.00,,,0.80,,2013-02-08 01:31:00,
2013-02-07 19:41:00,35.0,32.0,29.97,NNW,338,4.0,8.0,88,0.00,,,0.80,,2013-02-08 01:41:00,
2013-02-07 19:52:00,35.0,32.0,29.97,North,355,6.0,11.0,88,0.00,,,0.80,,2013-02-08 01:52:00,
2013-02-07 20:01:00,35.0,32.0,29.98,NNW,346,3.0,9.0,88,0.00,,,0.80,,2013-02-08 02:01:00,
2013-02-07 20:11:00,35.0,32.0,29.98,NNW,346,3.0,9.0,88,0.00,,,0.80,,2013-02-08 02:11:00,
2013-02-07 20:21:00,35.0,32.0,29.99,NNW,335,5.0,9.0,87,0.00,,,0.80,,2013-02-08 02:21:00,
2013-02-07 20:32:00,35.0,32.0,29.99,NW,322,4.0,9.0,87,0.00,,,0.80,,2013-02-08 02:32:00,
2013-02-07 20:42:00,35.0,32.0,29.99,NW,322,4.0,9.0,87,0.00,,,0.80,,2013-02-08 02:42:00,
2013-02-07 20:52:00,35.0,32.0,30.00,NNW,346,5.0,11.0,87,0.00,,,0.80,,2013-02-08 02:52:00,
2013-02-07 21:01:00,35.0,32.0,30.00,NNW,338,4.0,9.0,87,0.00,,,0.80,,2013-02-08 03:01:00,
2013-02-07 21:12:00,35.0,32.0,30.00,NNW,338,4.0,9.0,87,0.00,,,0.80,,2013-02-08 03:12:00,
2013-02-07 21:22:00,35.0,31.0,30.00,North,355,3.0,6.0,86,0.00,,,0.80,,2013-02-08 03:22:00,
2013-02-07 21:32:00,35.0,32.0,30.01,North,350,7.0,12.0,87,0.00,,,0.80,,2013-02-08 03:32:00,
2013-02-07 21:41:00,35.0,32.0,30.01,North,350,7.0,12.0,87,0.00,,,0.80,,2013-02-08 03:41:00,
2013-02-07 21:52:00,35.0,31.0,30.02,NNW,334,4.0,13.0,86,0.00,,,0.80,,2013-02-08 03:52:00,
2013-02-07 22:01:00,35.0,31.0,30.02,NNW,348,3.0,8.0,86,0.00,,,0.80,,2013-02-08 04:01:00,
2013-02-07 22:11:00,35.0,31.0,30.02,NNW,348,3.0,8.0,86,0.00,,,0.80,,2013-02-08 04:11:00,
2013-02-07 22:21:00,34.0,30.0,30.03,North,5,3.0,10.0,86,0.00,,,0.80,,2013-02-08 04:21:00,
2013-02-07 22:32:00,34.0,30.0,30.03,North,10,5.0,9.0,85,0.00,,,0.80,,2013-02-08 04:32:00,
2013-02-07 22:41:00,34.0,30.0,30.03,North,10,5.0,9.0,85,0.00,,,0.80,,2013-02-08 04:41:00,
2013-02-07 22:52:00,34.0,30.0,30.03,North,9,5.0,10.0,85,0.00,,,0.80,,2013-02-08 04:52:00,
2013-02-07 23:02:00,34.0,30.0,30.04,North,5,6.0,9.0,85,0.00,,,0.80,,2013-02-08 05:02:00,
2013-02-07 23:11:00,34.0,30.0,30.04,North,5,6.0,9.0,85,0.00,,,0.80,,2013-02-08 05:11:00,
2013-02-07 23:22:00,34.0,30.0,30.05,NNW,346,4.0,9.0,84,0.00,,,0.80,,2013-02-08 05:22:00,
2013-02-07 23:32:00,33.0,29.0,30.05,North,360,4.0,10.0,84,0.00,,,0.80,,2013-02-08 05:32:00,
2013-02-07 23:42:00,33.0,29.0,30.05,North,360,4.0,10.0,84,0.00,,,0.80,,2013-02-08 05:42:00,
2013-02-07 23:52:00,33.0,29.0,30.04,NNW,337,5.0,7.0,84,0.00,,,0.80,,2013-02-08 05:52:00,